sensor_id;sensor_type;location;lat;lon;timestamp;pressure;altitude;pressure_sealevel;temperature;humidity
20987;BME280;10652;50.306;8.570;2022-12-29T00:03:40;97101.16;;;9.80;100.00
20987;BME280;10652;50.306;8.570;2022-12-29T00:07:42;97107.66;;;9.89;100.00
20987;BME280;10652;50.306;8.570;2022-12-29T00:11:44;97079.53;;;9.94;100.00
20987;BME280;10652;50.306;8.570;2022-12-29T00:15:46;97094.19;;;9.97;100.00
20987;BME280;10652;50.306;8.570;2022-12-29T00:19:49;97088.97;;;9.97;100.00
20987;BME280;10652;50.306;8.570;2022-12-29T00:24:14;97085.34;;;9.99;100.00
20987;BME280;10652;50.306;8.570;2022-12-29T00:28:28;97085.19;;;10.02;100.00
20987;BME280;10652;50.306;8.570;2022-12-29T00:32:49;97075.47;;;10.04;100.00
20987;BME280;10652;50.306;8.570;2022-12-29T00:37:10;97082.25;;;10.08;100.00
20987;BME280;10652;50.306;8.570;2022-12-29T00:41:12;97075.22;;;10.09;100.00
20987;BME280;10652;50.306;8.570;2022-12-29T00:45:35;97087.41;;;10.10;100.00
20987;BME280;10652;50.306;8.570;2022-12-29T00:49:38;97081.25;;;10.11;100.00
20987;BME280;10652;50.306;8.570;2022-12-29T00:53:40;97084.63;;;10.13;100.00
20987;BME280;10652;50.306;8.570;2022-12-29T00:57:43;97075.84;;;10.14;100.00
20987;BME280;10652;50.306;8.570;2022-12-29T01:01:46;97074.19;;;10.13;100.00
20987;BME280;10652;50.306;8.570;2022-12-29T01:05:48;97064.53;;;10.13;100.00
20987;BME280;10652;50.306;8.570;2022-12-29T01:09:50;97058.38;;;10.14;100.00
20987;BME280;10652;50.306;8.570;2022-12-29T01:14:11;97049.56;;;10.17;100.00
20987;BME280;10652;50.306;8.570;2022-12-29T01:18:13;97025.94;;;10.18;100.00
20987;BME280;10652;50.306;8.570;2022-12-29T01:22:15;97044.16;;;10.20;100.00
20987;BME280;10652;50.306;8.570;2022-12-29T01:26:18;97033.69;;;10.20;100.00
20987;BME280;10652;50.306;8.570;2022-12-29T01:30:20;97014.47;;;10.21;100.00
20987;BME280;10652;50.306;8.570;2022-12-29T01:34:22;97008.81;;;10.29;100.00
20987;BME280;10652;50.306;8.570;2022-12-29T01:38:24;97029.72;;;10.91;100.00
20987;BME280;10652;50.306;8.570;2022-12-29T01:42:27;97010.06;;;10.68;100.00
20987;BME280;10652;50.306;8.570;2022-12-29T01:50:46;97016.84;;;10.41;100.00
20987;BME280;10652;50.306;8.570;2022-12-29T01:54:54;97034.91;;;10.30;100.00
20987;BME280;10652;50.306;8.570;2022-12-29T01:59:04;97038.75;;;10.23;100.00
20987;BME280;10652;50.306;8.570;2022-12-29T02:03:08;97049.56;;;10.17;100.00
20987;BME280;10652;50.306;8.570;2022-12-29T02:07:18;97055.75;;;10.14;100.00
20987;BME280;10652;50.306;8.570;2022-12-29T02:11:21;97070.56;;;10.15;100.00
20987;BME280;10652;50.306;8.570;2022-12-29T02:29:54;97060.63;;;10.05;100.00
20987;BME280;10652;50.306;8.570;2022-12-29T02:34:17;97072.97;;;10.03;100.00
20987;BME280;10652;50.306;8.570;2022-12-29T02:42:46;97044.94;;;10.05;100.00
20987;BME280;10652;50.306;8.570;2022-12-29T02:47:11;97053.19;;;9.97;100.00
20987;BME280;10652;50.306;8.570;2022-12-29T02:51:20;97056.13;;;9.91;100.00
20987;BME280;10652;50.306;8.570;2022-12-29T02:55:25;97060.59;;;9.89;100.00
20987;BME280;10652;50.306;8.570;2022-12-29T02:59:28;97058.00;;;9.89;100.00
20987;BME280;10652;50.306;8.570;2022-12-29T03:03:45;97062.13;;;9.93;100.00
20987;BME280;10652;50.306;8.570;2022-12-29T03:08:00;97048.75;;;9.99;100.00
20987;BME280;10652;50.306;8.570;2022-12-29T03:12:34;97052.97;;;10.02;100.00
20987;BME280;10652;50.306;8.570;2022-12-29T03:17:43;97055.34;;;10.06;100.00
20987;BME280;10652;50.306;8.570;2022-12-29T03:26:19;97049.84;;;10.11;100.00
20987;BME280;10652;50.306;8.570;2022-12-29T03:30:24;97046.31;;;10.12;100.00
20987;BME280;10652;50.306;8.570;2022-12-29T03:34:29;97048.84;;;10.13;100.00
20987;BME280;10652;50.306;8.570;2022-12-29T03:38:54;97041.84;;;10.14;100.00
20987;BME280;10652;50.306;8.570;2022-12-29T03:43:02;97039.22;;;10.14;100.00
20987;BME280;10652;50.306;8.570;2022-12-29T03:47:06;97032.22;;;10.14;100.00
20987;BME280;10652;50.306;8.570;2022-12-29T03:51:09;97028.66;;;10.17;100.00
20987;BME280;10652;50.306;8.570;2022-12-29T03:55:11;97023.06;;;10.54;100.00
20987;BME280;10652;50.306;8.570;2022-12-29T03:59:14;97025.47;;;10.43;100.00
20987;BME280;10652;50.306;8.570;2022-12-29T04:03:16;97025.78;;;10.37;100.00
20987;BME280;10652;50.306;8.570;2022-12-29T04:07:19;97009.47;;;10.32;100.00
20987;BME280;10652;50.306;8.570;2022-12-29T04:11:22;97009.66;;;10.29;100.00
20987;BME280;10652;50.306;8.570;2022-12-29T04:15:30;97004.59;;;10.26;100.00
20987;BME280;10652;50.306;8.570;2022-12-29T04:19:33;97016.00;;;10.25;100.00
20987;BME280;10652;50.306;8.570;2022-12-29T04:23:37;97018.69;;;10.23;100.00
20987;BME280;10652;50.306;8.570;2022-12-29T04:27:41;97016.66;;;10.29;100.00
20987;BME280;10652;50.306;8.570;2022-12-29T04:32:09;97020.06;;;10.31;100.00
20987;BME280;10652;50.306;8.570;2022-12-29T04:36:17;97010.59;;;10.28;100.00
20987;BME280;10652;50.306;8.570;2022-12-29T04:40:20;97012.47;;;10.26;100.00
20987;BME280;10652;50.306;8.570;2022-12-29T04:44:22;97016.72;;;10.27;100.00
20987;BME280;10652;50.306;8.570;2022-12-29T04:48:36;97006.63;;;10.21;100.00
20987;BME280;10652;50.306;8.570;2022-12-29T04:53:17;97016.31;;;10.19;100.00
20987;BME280;10652;50.306;8.570;2022-12-29T04:57:19;97019.84;;;10.18;100.00
20987;BME280;10652;50.306;8.570;2022-12-29T05:01:26;97004.16;;;10.18;100.00
20987;BME280;10652;50.306;8.570;2022-12-29T05:05:28;97005.84;;;10.19;100.00
20987;BME280;10652;50.306;8.570;2022-12-29T05:09:31;97017.22;;;10.18;100.00
20987;BME280;10652;50.306;8.570;2022-12-29T05:13:35;96991.06;;;10.18;100.00
20987;BME280;10652;50.306;8.570;2022-12-29T05:17:37;97002.31;;;10.20;100.00
20987;BME280;10652;50.306;8.570;2022-12-29T05:21:40;97009.25;;;10.21;100.00
20987;BME280;10652;50.306;8.570;2022-12-29T05:25:43;97011.09;;;10.19;100.00
20987;BME280;10652;50.306;8.570;2022-12-29T05:30:10;97009.38;;;10.18;100.00
20987;BME280;10652;50.306;8.570;2022-12-29T05:34:12;97007.84;;;10.14;100.00
20987;BME280;10652;50.306;8.570;2022-12-29T05:38:15;97011.78;;;10.38;100.00
20987;BME280;10652;50.306;8.570;2022-12-29T05:42:19;97004.09;;;10.35;100.00
20987;BME280;10652;50.306;8.570;2022-12-29T05:46:38;97007.72;;;10.17;100.00
20987;BME280;10652;50.306;8.570;2022-12-29T05:50:50;97001.06;;;10.10;100.00
20987;BME280;10652;50.306;8.570;2022-12-29T05:54:58;97011.53;;;10.10;100.00
20987;BME280;10652;50.306;8.570;2022-12-29T05:59:01;97016.63;;;10.13;100.00
20987;BME280;10652;50.306;8.570;2022-12-29T06:03:04;97009.38;;;10.18;100.00
20987;BME280;10652;50.306;8.570;2022-12-29T06:07:06;97009.97;;;10.23;100.00
20987;BME280;10652;50.306;8.570;2022-12-29T06:11:15;97009.06;;;10.24;100.00
20987;BME280;10652;50.306;8.570;2022-12-29T06:15:24;97007.22;;;10.26;100.00
20987;BME280;10652;50.306;8.570;2022-12-29T06:19:27;97015.16;;;10.24;100.00
20987;BME280;10652;50.306;8.570;2022-12-29T06:23:30;97009.06;;;10.24;100.00
20987;BME280;10652;50.306;8.570;2022-12-29T06:27:33;97012.47;;;10.26;100.00
20987;BME280;10652;50.306;8.570;2022-12-29T06:31:35;96990.69;;;10.25;100.00
20987;BME280;10652;50.306;8.570;2022-12-29T06:35:38;96999.44;;;10.24;100.00
20987;BME280;10652;50.306;8.570;2022-12-29T06:39:41;97005.44;;;10.27;100.00
20987;BME280;10652;50.306;8.570;2022-12-29T06:43:46;96996.66;;;10.27;100.00
20987;BME280;10652;50.306;8.570;2022-12-29T06:47:58;97020.06;;;10.31;100.00
20987;BME280;10652;50.306;8.570;2022-12-29T06:52:00;97003.50;;;10.30;100.00
20987;BME280;10652;50.306;8.570;2022-12-29T06:56:13;96998.41;;;10.27;100.00
20987;BME280;10652;50.306;8.570;2022-12-29T07:00:15;97001.41;;;10.21;100.00
20987;BME280;10652;50.306;8.570;2022-12-29T07:04:23;96965.88;;;10.17;100.00
20987;BME280;10652;50.306;8.570;2022-12-29T07:08:25;96983.53;;;10.12;100.00
20987;BME280;10652;50.306;8.570;2022-12-29T07:12:27;96982.69;;;10.11;100.00
20987;BME280;10652;50.306;8.570;2022-12-29T07:16:30;96973.09;;;10.12;100.00
20987;BME280;10652;50.306;8.570;2022-12-29T07:20:32;96974.78;;;10.13;100.00
20987;BME280;10652;50.306;8.570;2022-12-29T07:24:34;96979.03;;;10.15;100.00
20987;BME280;10652;50.306;8.570;2022-12-29T07:28:36;96976.31;;;10.17;100.00
20987;BME280;10652;50.306;8.570;2022-12-29T07:32:40;96965.50;;;10.23;100.00
20987;BME280;10652;50.306;8.570;2022-12-29T07:36:42;96967.13;;;10.25;100.00
20987;BME280;10652;50.306;8.570;2022-12-29T07:40:44;96970.41;;;10.29;100.00
20987;BME280;10652;50.306;8.570;2022-12-29T07:44:46;96973.56;;;10.36;100.00
20987;BME280;10652;50.306;8.570;2022-12-29T07:48:53;96973.25;;;10.40;100.00
20987;BME280;10652;50.306;8.570;2022-12-29T07:52:55;96976.66;;;10.42;100.00
20987;BME280;10652;50.306;8.570;2022-12-29T07:56:57;96989.41;;;10.48;100.00
20987;BME280;10652;50.306;8.570;2022-12-29T08:01:01;96979.44;;;10.55;100.00
20987;BME280;10652;50.306;8.570;2022-12-29T08:05:04;96991.34;;;10.60;100.00
20987;BME280;10652;50.306;8.570;2022-12-29T08:09:06;96984.06;;;10.65;100.00
20987;BME280;10652;50.306;8.570;2022-12-29T08:13:18;96986.63;;;10.67;100.00
20987;BME280;10652;50.306;8.570;2022-12-29T08:17:21;97000.38;;;10.70;100.00
20987;BME280;10652;50.306;8.570;2022-12-29T08:21:23;97014.06;;;10.76;100.00
20987;BME280;10652;50.306;8.570;2022-12-29T08:25:25;96995.53;;;10.79;100.00
20987;BME280;10652;50.306;8.570;2022-12-29T08:29:27;96997.03;;;10.83;100.00
20987;BME280;10652;50.306;8.570;2022-12-29T08:33:29;97003.97;;;10.84;100.00
20987;BME280;10652;50.306;8.570;2022-12-29T08:37:32;97009.03;;;10.87;98.03
20987;BME280;10652;50.306;8.570;2022-12-29T08:41:34;97004.19;;;10.95;98.15
20987;BME280;10652;50.306;8.570;2022-12-29T08:45:36;97005.56;;;11.02;97.37
20987;BME280;10652;50.306;8.570;2022-12-29T08:49:38;97024.88;;;11.59;99.45
20987;BME280;10652;50.306;8.570;2022-12-29T08:53:41;97026.38;;;11.63;94.66
20987;BME280;10652;50.306;8.570;2022-12-29T08:57:43;97023.09;;;11.59;93.93
20987;BME280;10652;50.306;8.570;2022-12-29T09:01:50;97050.78;;;11.49;94.42
20987;BME280;10652;50.306;8.570;2022-12-29T09:05:53;97076.94;;;11.51;95.50
20987;BME280;10652;50.306;8.570;2022-12-29T09:09:55;97077.84;;;11.50;95.77
20987;BME280;10652;50.306;8.570;2022-12-29T09:13:57;97086.94;;;11.44;97.73
20987;BME280;10652;50.306;8.570;2022-12-29T09:17:59;97097.75;;;11.38;98.92
20987;BME280;10652;50.306;8.570;2022-12-29T09:22:01;97085.78;;;11.34;98.95
20987;BME280;10652;50.306;8.570;2022-12-29T09:26:04;97090.84;;;11.37;99.53
20987;BME280;10652;50.306;8.570;2022-12-29T09:30:09;97086.34;;;11.39;100.00
20987;BME280;10652;50.306;8.570;2022-12-29T09:34:11;97087.69;;;11.46;100.00
20987;BME280;10652;50.306;8.570;2022-12-29T09:38:13;97094.81;;;11.58;99.13
20987;BME280;10652;50.306;8.570;2022-12-29T09:42:32;97098.28;;;11.75;96.32
20987;BME280;10652;50.306;8.570;2022-12-29T09:46:43;97099.72;;;11.80;94.30
20987;BME280;10652;50.306;8.570;2022-12-29T09:50:55;97096.25;;;11.80;92.50
20987;BME280;10652;50.306;8.570;2022-12-29T09:55:03;97118.91;;;11.81;92.15
20987;BME280;10652;50.306;8.570;2022-12-29T09:59:17;97110.59;;;11.88;90.41
20987;BME280;10652;50.306;8.570;2022-12-29T10:03:22;97107.88;;;11.90;88.77
20987;BME280;10652;50.306;8.570;2022-12-29T10:07:35;97095.13;;;11.84;89.69
20987;BME280;10652;50.306;8.570;2022-12-29T10:16:14;97110.97;;;11.67;90.26
20987;BME280;10652;50.306;8.570;2022-12-29T10:25:17;97081.56;;;11.62;90.80
20987;BME280;10652;50.306;8.570;2022-12-29T10:29:25;97098.03;;;11.64;90.48
20987;BME280;10652;50.306;8.570;2022-12-29T10:33:37;97098.09;;;11.78;90.71
20987;BME280;10652;50.306;8.570;2022-12-29T10:37:57;97098.03;;;11.93;88.81
20987;BME280;10652;50.306;8.570;2022-12-29T10:46:37;97092.53;;;12.12;87.49
20987;BME280;10652;50.306;8.570;2022-12-29T10:50:40;97092.72;;;12.23;86.05
20987;BME280;10652;50.306;8.570;2022-12-29T10:54:52;97099.66;;;12.38;86.27
20987;BME280;10652;50.306;8.570;2022-12-29T10:58:59;97105.13;;;12.35;81.80
20987;BME280;10652;50.306;8.570;2022-12-29T11:03:21;97094.63;;;12.35;81.12
20987;BME280;10652;50.306;8.570;2022-12-29T11:07:31;97094.03;;;12.30;78.70
20987;BME280;10652;50.306;8.570;2022-12-29T11:11:35;97097.69;;;12.28;79.04
20987;BME280;10652;50.306;8.570;2022-12-29T11:15:40;97090.94;;;12.24;77.77
20987;BME280;10652;50.306;8.570;2022-12-29T11:19:42;97097.97;;;12.23;77.77
20987;BME280;10652;50.306;8.570;2022-12-29T11:23:55;97107.44;;;12.26;77.17
20987;BME280;10652;50.306;8.570;2022-12-29T11:28:15;97108.47;;;12.23;75.61
20987;BME280;10652;50.306;8.570;2022-12-29T11:32:21;97109.41;;;12.22;74.64
20987;BME280;10652;50.306;8.570;2022-12-29T11:36:30;97120.75;;;12.23;73.19
20987;BME280;10652;50.306;8.570;2022-12-29T11:40:38;97122.44;;;12.24;72.99
20987;BME280;10652;50.306;8.570;2022-12-29T11:44:48;97129.66;;;12.20;70.91
20987;BME280;10652;50.306;8.570;2022-12-29T11:48:51;97129.09;;;12.15;69.54
20987;BME280;10652;50.306;8.570;2022-12-29T11:53:02;97133.41;;;12.16;70.23
20987;BME280;10652;50.306;8.570;2022-12-29T11:57:16;97130.03;;;12.28;70.45
20987;BME280;10652;50.306;8.570;2022-12-29T12:01:29;97129.09;;;12.29;67.54
20987;BME280;10652;50.306;8.570;2022-12-29T12:05:49;97136.31;;;12.26;68.12
20987;BME280;10652;50.306;8.570;2022-12-29T12:09:58;97124.06;;;12.26;64.95
20987;BME280;10652;50.306;8.570;2022-12-29T12:14:27;97140.34;;;12.17;65.19
20987;BME280;10652;50.306;8.570;2022-12-29T12:23:42;97149.31;;;12.13;65.88
20987;BME280;10652;50.306;8.570;2022-12-29T12:28:11;97146.69;;;12.13;65.93
20987;BME280;10652;50.306;8.570;2022-12-29T12:32:22;97143.13;;;12.14;67.17
20987;BME280;10652;50.306;8.570;2022-12-29T12:36:52;97137.88;;;12.14;67.27
20987;BME280;10652;50.306;8.570;2022-12-29T12:41:13;97139.84;;;12.11;66.83
20987;BME280;10652;50.306;8.570;2022-12-29T12:45:36;97141.28;;;12.16;67.57
20987;BME280;10652;50.306;8.570;2022-12-29T12:50:19;97133.97;;;12.21;66.97
20987;BME280;10652;50.306;8.570;2022-12-29T13:03:48;97143.09;;;12.00;66.18
20987;BME280;10652;50.306;8.570;2022-12-29T13:12:30;97150.94;;;12.16;67.24
20987;BME280;10652;50.306;8.570;2022-12-29T13:16:49;97150.72;;;12.19;66.61
20987;BME280;10652;50.306;8.570;2022-12-29T13:21:02;97131.25;;;12.23;67.05
20987;BME280;10652;50.306;8.570;2022-12-29T13:25:31;97149.53;;;12.24;66.78
20987;BME280;10652;50.306;8.570;2022-12-29T13:30:08;97146.81;;;12.26;67.19
20987;BME280;10652;50.306;8.570;2022-12-29T13:38:36;97136.91;;;12.31;67.97
20987;BME280;10652;50.306;8.570;2022-12-29T13:42:40;97134.06;;;12.34;68.21
20987;BME280;10652;50.306;8.570;2022-12-29T13:46:44;97142.16;;;12.31;67.96
20987;BME280;10652;50.306;8.570;2022-12-29T13:50:53;97149.53;;;12.24;67.77
20987;BME280;10652;50.306;8.570;2022-12-29T13:55:16;97161.88;;;12.22;69.30
20987;BME280;10652;50.306;8.570;2022-12-29T13:59:37;97164.34;;;12.25;70.28
20987;BME280;10652;50.306;8.570;2022-12-29T14:03:50;97174.28;;;12.20;72.17
20987;BME280;10652;50.306;8.570;2022-12-29T14:07:58;97175.97;;;12.49;78.57
20987;BME280;10652;50.306;8.570;2022-12-29T14:12:19;97172.44;;;12.79;76.38
20987;BME280;10652;50.306;8.570;2022-12-29T14:16:27;97162.22;;;12.60;73.64
20987;BME280;10652;50.306;8.570;2022-12-29T14:20:30;97166.22;;;12.37;73.75
20987;BME280;10652;50.306;8.570;2022-12-29T14:28:36;97179.22;;;12.11;75.32
20987;BME280;10652;50.306;8.570;2022-12-29T14:33:01;97182.66;;;11.97;76.26
20987;BME280;10652;50.306;8.570;2022-12-29T14:37:04;97192.81;;;11.87;76.50
20987;BME280;10652;50.306;8.570;2022-12-29T14:41:27;97198.69;;;11.77;76.16
20987;BME280;10652;50.306;8.570;2022-12-29T14:45:30;97201.66;;;11.71;76.27
20987;BME280;10652;50.306;8.570;2022-12-29T14:49:42;97207.88;;;11.68;76.79
20987;BME280;10652;50.306;8.570;2022-12-29T14:53:49;97212.41;;;11.66;76.65
20987;BME280;10652;50.306;8.570;2022-12-29T14:57:59;97194.88;;;11.67;76.69
20987;BME280;10652;50.306;8.570;2022-12-29T15:02:12;97202.84;;;11.65;75.13
20987;BME280;10652;50.306;8.570;2022-12-29T15:06:18;97212.66;;;11.62;75.43
20987;BME280;10652;50.306;8.570;2022-12-29T15:10:24;97197.25;;;11.55;75.59
20987;BME280;10652;50.306;8.570;2022-12-29T15:18:34;97192.97;;;11.39;75.47
20987;BME280;10652;50.306;8.570;2022-12-29T15:22:37;97211.81;;;11.30;75.55
20987;BME280;10652;50.306;8.570;2022-12-29T15:26:47;97227.22;;;11.20;75.63
20987;BME280;10652;50.306;8.570;2022-12-29T15:34:56;97225.16;;;10.94;76.21
20987;BME280;10652;50.306;8.570;2022-12-29T15:38:58;97222.19;;;10.84;74.71
20987;BME280;10652;50.306;8.570;2022-12-29T15:47:12;97222.00;;;10.72;70.44
20987;BME280;10652;50.306;8.570;2022-12-29T15:51:17;97228.47;;;10.64;68.08
20987;BME280;10652;50.306;8.570;2022-12-29T15:55:32;97241.78;;;10.60;68.09
20987;BME280;10652;50.306;8.570;2022-12-29T15:59:35;97249.94;;;10.54;67.15
20987;BME280;10652;50.306;8.570;2022-12-29T16:03:37;97256.50;;;10.45;65.76
20987;BME280;10652;50.306;8.570;2022-12-29T16:07:52;97258.78;;;10.36;66.44
20987;BME280;10652;50.306;8.570;2022-12-29T16:11:57;97251.47;;;10.25;66.75
20987;BME280;10652;50.306;8.570;2022-12-29T16:16:06;97263.13;;;10.18;67.50
20987;BME280;10652;50.306;8.570;2022-12-29T16:20:21;97270.44;;;10.11;67.31
20987;BME280;10652;50.306;8.570;2022-12-29T16:24:26;97274.19;;;10.06;67.97
20987;BME280;10652;50.306;8.570;2022-12-29T16:28:40;97280.66;;;9.99;68.01
20987;BME280;10652;50.306;8.570;2022-12-29T16:32:51;97287.94;;;9.92;68.51
20987;BME280;10652;50.306;8.570;2022-12-29T16:41:01;97298.34;;;9.94;68.31
20987;BME280;10652;50.306;8.570;2022-12-29T16:49:24;97310.34;;;9.98;68.48
20987;BME280;10652;50.306;8.570;2022-12-29T16:53:31;97304.94;;;10.01;69.33
20987;BME280;10652;50.306;8.570;2022-12-29T16:57:35;97312.09;;;9.97;70.10
20987;BME280;10652;50.306;8.570;2022-12-29T17:01:38;97319.88;;;9.99;70.77
20987;BME280;10652;50.306;8.570;2022-12-29T17:05:41;97328.56;;;9.99;72.13
20987;BME280;10652;50.306;8.570;2022-12-29T17:09:43;97322.34;;;10.02;73.63
20987;BME280;10652;50.306;8.570;2022-12-29T17:13:45;97318.13;;;9.99;74.33
20987;BME280;10652;50.306;8.570;2022-12-29T17:17:49;97324.47;;;9.94;74.89
20987;BME280;10652;50.306;8.570;2022-12-29T17:21:52;97326.47;;;9.89;74.71
20987;BME280;10652;50.306;8.570;2022-12-29T17:25:54;97328.72;;;9.77;74.56
20987;BME280;10652;50.306;8.570;2022-12-29T17:30:00;97332.84;;;9.64;74.20
20987;BME280;10652;50.306;8.570;2022-12-29T17:34:03;97333.41;;;9.52;74.47
20987;BME280;10652;50.306;8.570;2022-12-29T17:38:22;97342.44;;;9.45;74.89
20987;BME280;10652;50.306;8.570;2022-12-29T17:42:26;97332.56;;;9.33;75.57
20987;BME280;10652;50.306;8.570;2022-12-29T17:46:28;97325.19;;;9.22;76.44
20987;BME280;10652;50.306;8.570;2022-12-29T17:50:31;97331.56;;;9.17;77.69
20987;BME280;10652;50.306;8.570;2022-12-29T17:54:33;97335.25;;;9.13;78.97
20987;BME280;10652;50.306;8.570;2022-12-29T17:58:35;97331.84;;;9.11;80.35
20987;BME280;10652;50.306;8.570;2022-12-29T18:02:37;97331.13;;;9.07;80.96
20987;BME280;10652;50.306;8.570;2022-12-29T18:06:40;97326.03;;;9.04;81.73
20987;BME280;10652;50.306;8.570;2022-12-29T18:10:43;97331.34;;;9.03;82.34
20987;BME280;10652;50.306;8.570;2022-12-29T18:14:45;97328.94;;;8.98;82.12
20987;BME280;10652;50.306;8.570;2022-12-29T18:18:47;97338.00;;;8.89;82.50
20987;BME280;10652;50.306;8.570;2022-12-29T18:22:49;97343.50;;;8.83;82.92
20987;BME280;10652;50.306;8.570;2022-12-29T18:26:51;97338.28;;;8.83;83.83
20987;BME280;10652;50.306;8.570;2022-12-29T18:30:56;97348.72;;;8.83;84.20
20987;BME280;10652;50.306;8.570;2022-12-29T18:34:58;97354.06;;;8.80;83.41
20987;BME280;10652;50.306;8.570;2022-12-29T18:39:00;97357.59;;;8.79;83.24
20987;BME280;10652;50.306;8.570;2022-12-29T18:43:03;97359.41;;;8.77;82.79
20987;BME280;10652;50.306;8.570;2022-12-29T18:47:05;97368.28;;;8.73;82.81
20987;BME280;10652;50.306;8.570;2022-12-29T18:51:22;97378.81;;;8.72;82.68
20987;BME280;10652;50.306;8.570;2022-12-29T18:55:26;97370.91;;;8.73;83.34
20987;BME280;10652;50.306;8.570;2022-12-29T18:59:29;97383.38;;;8.67;82.82
20987;BME280;10652;50.306;8.570;2022-12-29T19:03:31;97387.75;;;8.66;82.82
20987;BME280;10652;50.306;8.570;2022-12-29T19:07:33;97391.41;;;8.62;83.02
20987;BME280;10652;50.306;8.570;2022-12-29T19:11:35;97381.63;;;8.67;84.05
20987;BME280;10652;50.306;8.570;2022-12-29T19:15:37;97390.22;;;8.69;84.83
20987;BME280;10652;50.306;8.570;2022-12-29T19:19:40;97396.22;;;8.71;84.77
20987;BME280;10652;50.306;8.570;2022-12-29T19:23:43;97403.13;;;8.72;84.58
20987;BME280;10652;50.306;8.570;2022-12-29T19:27:47;97398.31;;;8.83;85.23
20987;BME280;10652;50.306;8.570;2022-12-29T19:31:49;97397.25;;;8.87;84.06
20987;BME280;10652;50.306;8.570;2022-12-29T19:35:51;97399.09;;;8.85;84.07
20987;BME280;10652;50.306;8.570;2022-12-29T19:39:53;97398.38;;;8.82;84.22
20987;BME280;10652;50.306;8.570;2022-12-29T19:43:55;97399.59;;;8.73;84.38
20987;BME280;10652;50.306;8.570;2022-12-29T19:47:57;97401.50;;;8.70;84.45
20987;BME280;10652;50.306;8.570;2022-12-29T19:52:00;97401.56;;;8.68;84.70
20987;BME280;10652;50.306;8.570;2022-12-29T19:56:06;97410.31;;;8.67;84.53
20987;BME280;10652;50.306;8.570;2022-12-29T20:00:09;97402.34;;;8.70;84.25
20987;BME280;10652;50.306;8.570;2022-12-29T20:04:14;97411.88;;;8.71;83.90
20987;BME280;10652;50.306;8.570;2022-12-29T20:08:16;97408.22;;;8.75;84.01
20987;BME280;10652;50.306;8.570;2022-12-29T20:12:18;97408.88;;;8.80;83.97
20987;BME280;10652;50.306;8.570;2022-12-29T20:16:29;97403.53;;;8.83;83.74
20987;BME280;10652;50.306;8.570;2022-12-29T20:20:32;97404.31;;;8.85;84.26
20987;BME280;10652;50.306;8.570;2022-12-29T20:24:36;97403.28;;;8.89;83.63
20987;BME280;10652;50.306;8.570;2022-12-29T20:28:38;97412.06;;;8.87;82.91
20987;BME280;10652;50.306;8.570;2022-12-29T20:32:40;97413.31;;;8.78;82.81
20987;BME280;10652;50.306;8.570;2022-12-29T20:36:45;97424.00;;;8.72;83.21
20987;BME280;10652;50.306;8.570;2022-12-29T20:40:47;97425.19;;;8.65;83.40
20987;BME280;10652;50.306;8.570;2022-12-29T20:44:49;97411.47;;;8.60;83.05
20987;BME280;10652;50.306;8.570;2022-12-29T20:48:52;97416.94;;;8.54;83.87
20987;BME280;10652;50.306;8.570;2022-12-29T20:52:54;97418.81;;;8.51;84.31
20987;BME280;10652;50.306;8.570;2022-12-29T20:56:56;97419.81;;;8.48;84.97
20987;BME280;10652;50.306;8.570;2022-12-29T21:01:04;97435.56;;;8.45;85.81
20987;BME280;10652;50.306;8.570;2022-12-29T21:05:07;97432.31;;;8.40;85.57
20987;BME280;10652;50.306;8.570;2022-12-29T21:09:26;97453.44;;;8.34;85.95
20987;BME280;10652;50.306;8.570;2022-12-29T21:13:28;97462.09;;;8.34;86.79
20987;BME280;10652;50.306;8.570;2022-12-29T21:17:30;97467.31;;;8.56;91.63
20987;BME280;10652;50.306;8.570;2022-12-29T21:21:32;97471.63;;;8.57;86.62
20987;BME280;10652;50.306;8.570;2022-12-29T21:25:35;97476.41;;;8.46;85.55
20987;BME280;10652;50.306;8.570;2022-12-29T21:29:38;97481.88;;;8.40;84.76
20987;BME280;10652;50.306;8.570;2022-12-29T21:33:40;97499.47;;;8.35;84.65
20987;BME280;10652;50.306;8.570;2022-12-29T21:37:42;97498.66;;;8.33;84.77
20987;BME280;10652;50.306;8.570;2022-12-29T21:41:44;97511.84;;;8.28;84.98
20987;BME280;10652;50.306;8.570;2022-12-29T21:45:49;97521.44;;;8.29;85.05
20987;BME280;10652;50.306;8.570;2022-12-29T21:49:51;97510.16;;;8.27;85.04
20987;BME280;10652;50.306;8.570;2022-12-29T21:53:55;97518.28;;;8.20;85.03
20987;BME280;10652;50.306;8.570;2022-12-29T21:58:18;97515.91;;;8.14;85.50
20987;BME280;10652;50.306;8.570;2022-12-29T22:02:38;97509.09;;;8.10;85.80
20987;BME280;10652;50.306;8.570;2022-12-29T22:07:00;97505.75;;;8.06;85.85
20987;BME280;10652;50.306;8.570;2022-12-29T22:11:21;97505.13;;;7.99;85.86
20987;BME280;10652;50.306;8.570;2022-12-29T22:15:42;97507.09;;;7.94;86.31
20987;BME280;10652;50.306;8.570;2022-12-29T22:19:44;97528.84;;;7.93;86.38
20987;BME280;10652;50.306;8.570;2022-12-29T22:23:46;97533.38;;;7.88;86.21
20987;BME280;10652;50.306;8.570;2022-12-29T22:27:49;97532.69;;;7.83;86.32
20987;BME280;10652;50.306;8.570;2022-12-29T22:31:59;97538.75;;;7.84;86.39
20987;BME280;10652;50.306;8.570;2022-12-29T22:36:01;97543.97;;;7.84;86.70
20987;BME280;10652;50.306;8.570;2022-12-29T22:40:04;97547.41;;;7.84;86.47
20987;BME280;10652;50.306;8.570;2022-12-29T22:44:07;97554.34;;;7.85;86.20
20987;BME280;10652;50.306;8.570;2022-12-29T22:48:09;97554.09;;;7.91;86.51
20987;BME280;10652;50.306;8.570;2022-12-29T22:52:11;97560.84;;;7.97;85.83
20987;BME280;10652;50.306;8.570;2022-12-29T22:56:15;97564.19;;;8.00;85.24
20987;BME280;10652;50.306;8.570;2022-12-29T23:00:17;97565.69;;;8.08;85.02
20987;BME280;10652;50.306;8.570;2022-12-29T23:04:19;97584.38;;;8.19;84.75
20987;BME280;10652;50.306;8.570;2022-12-29T23:08:42;97582.31;;;8.27;84.19
20987;BME280;10652;50.306;8.570;2022-12-29T23:12:44;97585.75;;;8.29;83.23
20987;BME280;10652;50.306;8.570;2022-12-29T23:16:47;97583.84;;;8.34;83.03
20987;BME280;10652;50.306;8.570;2022-12-29T23:20:49;97585.44;;;8.38;82.49